Time;durP1;ratioP1;P1;durP2;ratioP2;P2;SDS_P1;SDS_P2;PMS_P1;PMS_P2;Temp;Humidity;BMP_temperature;BMP_pressure;BME280_temperature;BME280_humidity;BME280_pressure;Samples;Min_cycle;Max_cycle;Signal;HPM_P1;HPM_P2
2023/10/27 00:01:30;;;;;;;0.00;0.00;;;;;;;11.14;100.00;96995.59;5155711;27;20205;-57
2023/10/27 00:04:18;;;;;;;0.00;0.00;;;;;;;11.26;100.00;97001.47;5156998;27;20205;-58
2023/10/27 00:07:05;;;;;;;0.10;0.10;;;;;;;11.03;100.00;97006.47;5156894;27;20205;-57
2023/10/27 00:09:52;;;;;;;0.10;0.10;;;;;;;11.03;100.00;97002.00;5156710;27;20216;-57
2023/10/27 00:12:38;;;;;;;0.10;0.10;;;;;;;10.95;100.00;97004.56;5156964;27;20228;-57
2023/10/27 00:15:25;;;;;;;0.07;0.07;;;;;;;11.00;100.00;97012.03;5156900;27;20287;-57
2023/10/27 00:18:15;;;;;;;0.10;0.10;;;;;;;11.03;100.00;97009.09;5155538;27;20273;-57
2023/10/27 00:21:03;;;;;;;0.00;0.00;;;;;;;11.06;100.00;97009.63;5156795;27;20189;-57
2023/10/27 00:23:50;;;;;;;0.07;0.07;;;;;;;10.98;100.00;97000.78;5156350;27;20346;-57
2023/10/27 00:26:37;;;;;;;0.10;0.10;;;;;;;10.86;100.00;97011.63;5156667;27;20196;-57
2023/10/27 00:29:24;;;;;;;0.00;0.00;;;;;;;10.89;100.00;97013.94;5156481;27;20209;-57
2023/10/27 00:32:11;;;;;;;0.00;0.00;;;;;;;10.92;100.00;97015.47;5155283;27;20197;-57
2023/10/27 00:34:58;;;;;;;0.00;0.00;;;;;;;10.95;100.00;97017.81;5156474;27;20245;-57
2023/10/27 00:37:47;;;;;;;0.00;0.00;;;;;;;11.04;100.00;97018.72;5140817;27;20306;-57
2023/10/27 00:40:34;;;;;;;0.10;0.10;;;;;;;10.97;100.00;97017.66;5156386;27;20196;-57
2023/10/27 00:43:21;;;;;;;0.10;0.10;;;;;;;10.96;100.00;97024.78;5156211;27;20678;-58
2023/10/27 00:46:08;;;;;;;0.10;0.10;;;;;;;11.01;100.00;97035.75;5155075;27;20218;-58
2023/10/27 00:48:55;;;;;;;0.10;0.10;;;;;;;10.99;100.00;97047.47;5156283;27;20200;-57
2023/10/27 00:51:46;;;;;;;0.00;0.00;;;;;;;11.05;100.00;97036.25;5156160;27;20196;-57
2023/10/27 00:54:36;;;;;;;0.10;0.10;;;;;;;11.16;100.00;97034.19;5155979;27;20192;-57
2023/10/27 00:57:23;;;;;;;0.10;0.10;;;;;;;11.01;100.00;97029.63;5140077;27;20209;-57
2023/10/27 01:00:14;;;;;;;0.10;0.10;;;;;;;11.07;100.00;97035.13;5156151;27;20251;-57
2023/10/27 01:03:01;;;;;;;0.10;0.10;;;;;;;11.25;100.00;97031.59;5154569;27;20738;-58
2023/10/27 01:05:48;;;;;;;0.10;0.10;;;;;;;11.24;100.00;97028.13;5155890;27;20193;-57
2023/10/27 01:08:34;;;;;;;0.00;0.00;;;;;;;11.25;100.00;97034.25;5155821;27;20192;-57
2023/10/27 01:11:24;;;;;;;0.00;0.00;;;;;;;11.07;100.00;97029.00;5155289;27;20220;-57
2023/10/27 01:14:10;;;;;;;0.00;0.00;;;;;;;11.09;100.00;97019.06;5139754;27;20263;-57
2023/10/27 01:16:57;;;;;;;0.10;0.10;;;;;;;11.11;100.00;97027.72;5154241;27;20266;-58
2023/10/27 01:19:44;;;;;;;0.10;0.10;;;;;;;10.92;100.00;97027.88;5139842;27;20189;-57
2023/10/27 01:22:34;;;;;;;0.10;0.10;;;;;;;11.04;100.00;97030.13;5154987;27;20337;-57
2023/10/27 01:25:25;;;;;;;0.00;0.00;;;;;;;11.06;100.00;97022.03;5155426;27;20282;-57
2023/10/27 01:28:12;;;;;;;0.10;0.10;;;;;;;11.06;100.00;97016.72;5155449;27;20218;-57
2023/10/27 01:30:59;;;;;;;0.10;0.10;;;;;;;11.06;100.00;97016.72;5153582;27;20338;-57
2023/10/27 01:33:45;;;;;;;0.10;0.10;;;;;;;11.16;100.00;97013.00;5139650;27;20206;-57
2023/10/27 01:36:32;;;;;;;0.10;0.10;;;;;;;11.16;100.00;97013.00;5155057;27;20557;-57
2023/10/27 01:39:19;;;;;;;0.10;0.10;;;;;;;11.20;100.00;97010.91;5154981;27;20193;-57
2023/10/27 01:42:08;;;;;;;0.00;0.00;;;;;;;11.25;100.00;97003.28;5155145;27;20185;-58
2023/10/27 01:44:54;;;;;;;0.10;0.10;;;;;;;11.16;100.00;96999.75;5155061;27;20204;-57
2023/10/27 01:47:41;;;;;;;0.10;0.10;;;;;;;11.21;100.00;96995.81;5153653;27;20196;-57
2023/10/27 01:50:28;;;;;;;0.10;0.10;;;;;;;11.23;100.00;96989.38;5154765;27;20338;-58
2023/10/27 01:53:16;;;;;;;0.10;0.10;;;;;;;11.32;100.00;96998.22;5138978;27;20204;-57
2023/10/27 01:56:03;;;;;;;0.00;0.00;;;;;;;11.32;100.00;96982.31;5154867;27;20250;-57
2023/10/27 01:58:52;;;;;;;0.00;0.00;;;;;;;11.16;100.00;96978.56;5139244;27;20188;-57
2023/10/27 02:01:39;;;;;;;0.00;0.00;;;;;;;11.19;100.00;96977.41;5137745;27;20185;-57
2023/10/27 02:04:25;;;;;;;0.10;0.10;;;;;;;11.11;100.00;96974.72;5138862;27;20276;-57
2023/10/27 02:07:14;;;;;;;0.00;0.00;;;;;;;11.01;100.00;96966.06;5154824;27;20196;-57
2023/10/27 02:10:01;;;;;;;0.10;0.10;;;;;;;11.04;100.00;96963.91;5154588;27;20290;-57
2023/10/27 02:12:48;;;;;;;0.00;0.00;;;;;;;10.92;100.00;96964.34;5138994;27;20257;-57
2023/10/27 02:15:37;;;;;;;0.00;0.00;;;;;;;10.92;100.00;96951.09;5154685;27;20255;-57
2023/10/27 02:18:24;;;;;;;0.10;0.10;;;;;;;10.91;100.00;96955.56;5154892;27;20196;-57
2023/10/27 02:21:11;;;;;;;0.10;0.10;;;;;;;11.08;100.00;96953.81;5138853;27;20196;-57
2023/10/27 02:23:58;;;;;;;0.10;0.10;;;;;;;10.97;100.00;96959.38;5138524;27;20237;-57
2023/10/27 02:26:45;;;;;;;0.10;0.10;;;;;;;10.80;100.00;96963.72;5154462;27;20264;-57
2023/10/27 02:29:32;;;;;;;0.10;0.10;;;;;;;10.78;100.00;96960.41;5154337;27;20326;-57
2023/10/27 02:32:20;;;;;;;0.00;0.00;;;;;;;10.92;100.00;96962.50;5153177;27;20230;-57
2023/10/27 02:35:07;;;;;;;0.10;0.10;;;;;;;10.86;100.00;96965.75;5138848;27;20222;-57
2023/10/27 02:37:55;;;;;;;0.10;0.10;;;;;;;10.89;100.00;96965.44;5154392;27;20188;-57
2023/10/27 02:40:41;;;;;;;0.10;0.10;;;;;;;10.84;100.00;96971.22;5154327;27;20377;-57
2023/10/27 02:43:28;;;;;;;0.10;0.10;;;;;;;10.82;100.00;96969.72;5154444;27;20192;-57
2023/10/27 02:46:15;;;;;;;0.10;0.10;;;;;;;10.70;100.00;96965.63;5137246;27;20239;-57
2023/10/27 02:49:04;;;;;;;0.10;0.10;;;;;;;10.69;100.00;96970.09;5154199;27;20314;-57
2023/10/27 02:51:51;;;;;;;0.10;0.10;;;;;;;10.65;100.00;96962.63;5153857;27;20274;-57
2023/10/27 02:54:38;;;;;;;0.10;0.10;;;;;;;10.73;100.00;96960.88;5138525;27;20196;-57
2023/10/27 02:57:25;;;;;;;0.10;0.10;;;;;;;10.64;100.00;96958.31;5154115;27;20297;-57
2023/10/27 03:00:12;;;;;;;0.00;0.00;;;;;;;10.68;100.00;96951.72;5154086;27;20314;-58
2023/10/27 03:02:59;;;;;;;0.10;0.10;;;;;;;10.60;100.00;96955.13;5152773;27;20310;-58
2023/10/27 03:05:47;;;;;;;0.10;0.10;;;;;;;10.57;100.00;96948.31;5155973;27;20196;-58
2023/10/27 03:08:35;;;;;;;0.10;0.10;;;;;;;10.73;100.00;96950.28;5158110;27;20640;-57
2023/10/27 03:11:22;;;;;;;0.10;0.10;;;;;;;10.59;100.00;96950.81;5157894;27;20235;-57
2023/10/27 03:14:08;;;;;;;0.10;0.10;;;;;;;10.57;100.00;96953.63;5158102;27;20263;-57
2023/10/27 03:16:55;;;;;;;0.10;0.10;;;;;;;10.43;100.00;96961.28;5156604;27;20713;-58
2023/10/27 03:19:42;;;;;;;0.00;0.00;;;;;;;10.55;100.00;96949.47;5142314;27;20302;-57
2023/10/27 03:22:30;;;;;;;0.00;0.00;;;;;;;10.49;100.00;96950.91;5142011;27;20281;-57
2023/10/27 03:25:17;;;;;;;0.10;0.10;;;;;;;10.52;100.00;96955.91;5157878;27;20239;-57
2023/10/27 03:28:04;;;;;;;0.10;0.10;;;;;;;10.47;100.00;96944.94;5157765;27;20234;-57
2023/10/27 03:30:51;;;;;;;0.10;0.10;;;;;;;10.59;100.00;96949.00;5156590;27;20217;-57
2023/10/27 03:33:38;;;;;;;0.00;0.00;;;;;;;10.50;100.00;96946.44;5157697;27;20193;-57
2023/10/27 03:36:25;;;;;;;0.10;0.10;;;;;;;10.44;100.00;96939.13;5157671;27;20258;-57
2023/10/27 03:39:13;;;;;;;0.10;0.10;;;;;;;10.58;100.00;96944.69;5157527;27;20192;-57
2023/10/27 03:42:01;;;;;;;0.10;0.10;;;;;;;10.58;100.00;96944.69;5157455;27;20593;-57
2023/10/27 03:44:47;;;;;;;0.00;0.00;;;;;;;10.59;100.00;96943.72;5157365;27;20197;-57
2023/10/27 03:47:34;;;;;;;0.10;0.10;;;;;;;10.53;100.00;96940.84;5156019;27;20200;-57
2023/10/27 03:50:21;;;;;;;0.10;0.10;;;;;;;10.46;100.00;96947.75;5156427;27;20193;-57
2023/10/27 03:53:08;;;;;;;0.10;0.10;;;;;;;10.39;100.00;96938.72;5157156;27;20188;-57
2023/10/27 03:55:56;;;;;;;0.10;0.10;;;;;;;10.36;100.00;96949.63;5157320;27;20238;-57
2023/10/27 03:58:43;;;;;;;0.10;0.10;;;;;;;10.38;100.00;96948.50;5157280;27;20223;-57
2023/10/27 04:01:34;;;;;;;0.10;0.10;;;;;;;10.27;100.00;96946.91;5155859;27;20189;-57
2023/10/27 04:04:21;;;;;;;0.00;0.00;;;;;;;10.28;100.00;96951.22;5157222;27;20686;-57
2023/10/27 04:07:08;;;;;;;0.10;0.10;;;;;;;10.35;100.00;96958.56;5156996;27;20215;-57
2023/10/27 04:09:56;;;;;;;0.10;0.10;;;;;;;10.30;100.00;96961.63;5156945;27;20678;-57
2023/10/27 04:12:44;;;;;;;0.10;0.10;;;;;;;10.25;100.00;96956.81;5156534;27;20209;-57
2023/10/27 04:15:31;;;;;;;0.10;0.10;;;;;;;10.14;100.00;96961.47;5156772;27;20260;-57
2023/10/27 04:18:18;;;;;;;0.07;0.07;;;;;;;10.14;100.00;96957.00;5156734;27;20197;-57
2023/10/27 04:21:05;;;;;;;0.10;0.10;;;;;;;10.09;100.00;96959.25;5156973;27;20193;-57
2023/10/27 04:23:52;;;;;;;0.10;0.10;;;;;;;10.11;100.00;96953.81;5156331;27;20224;-57
2023/10/27 04:26:40;;;;;;;0.10;0.10;;;;;;;10.13;100.00;96957.94;5156776;27;20203;-57
2023/10/27 04:29:28;;;;;;;0.10;0.10;;;;;;;10.08;100.00;96951.47;5156399;27;20197;-57
2023/10/27 04:32:15;;;;;;;0.10;0.10;;;;;;;10.08;100.00;96947.00;5154776;27;20223;-57
2023/10/27 04:35:03;;;;;;;0.10;0.10;;;;;;;10.04;100.00;96945.66;5156482;27;20193;-57
2023/10/27 04:37:50;;;;;;;0.10;0.10;;;;;;;10.15;100.00;96949.91;5156515;27;20215;-57
2023/10/27 04:40:37;;;;;;;0.00;0.00;;;;;;;10.42;100.00;96944.56;5156374;27;20245;-57
2023/10/27 04:43:24;;;;;;;0.10;0.10;;;;;;;10.40;100.00;96948.34;5156285;27;20224;-57
2023/10/27 04:46:12;;;;;;;0.00;0.00;;;;;;;10.41;100.00;96939.41;5155261;27;20298;-57
2023/10/27 04:48:59;;;;;;;0.10;0.10;;;;;;;10.30;100.00;96938.66;5156127;27;20250;-57
2023/10/27 04:51:46;;;;;;;0.00;0.00;;;;;;;10.49;100.00;96936.84;5156050;27;20216;-57
2023/10/27 04:54:34;;;;;;;0.10;0.10;;;;;;;10.32;100.00;96938.50;5156107;27;20196;-57
2023/10/27 04:57:21;;;;;;;0.03;0.03;;;;;;;10.39;100.00;96928.97;5155953;27;20196;-57
2023/10/27 05:00:09;;;;;;;0.10;0.10;;;;;;;10.50;100.00;96927.91;5156274;27;20192;-57
2023/10/27 05:02:57;;;;;;;0.00;0.00;;;;;;;10.46;100.00;96922.09;5154718;27;20189;-57
2023/10/27 05:05:44;;;;;;;0.10;0.10;;;;;;;10.49;100.00;96937.66;5155764;27;20311;-57
2023/10/27 05:08:31;;;;;;;0.00;0.00;;;;;;;10.40;100.00;96935.09;5155812;27;20710;-57
2023/10/27 05:11:18;;;;;;;0.10;0.10;;;;;;;10.40;100.00;96935.94;5155745;27;20738;-57
2023/10/27 05:14:05;;;;;;;0.00;0.00;;;;;;;10.44;100.00;96941.78;5155633;27;20196;-57
2023/10/27 05:16:51;;;;;;;0.00;0.00;;;;;;;10.48;100.00;96951.06;5154637;27;20193;-57
2023/10/27 05:19:40;;;;;;;0.00;0.00;;;;;;;10.35;100.00;96956.75;5155820;27;20197;-57
2023/10/27 05:22:27;;;;;;;0.00;0.00;;;;;;;10.36;100.00;96947.81;5155194;27;20229;-57
2023/10/27 05:25:14;;;;;;;0.00;0.00;;;;;;;10.47;100.00;96942.28;5155588;27;20189;-57
2023/10/27 05:28:00;;;;;;;0.10;0.10;;;;;;;10.42;100.00;96943.72;5154643;27;20197;-57
2023/10/27 05:30:50;;;;;;;0.10;0.10;;;;;;;10.38;100.00;96939.72;5154062;27;20258;-57
2023/10/27 05:33:37;;;;;;;0.10;0.10;;;;;;;10.41;100.00;96939.41;5155297;27;20185;-57
2023/10/27 05:36:25;;;;;;;0.10;0.10;;;;;;;10.56;100.00;96945.84;5154875;27;20188;-57
2023/10/27 05:39:16;;;;;;;0.10;0.10;;;;;;;10.53;100.00;96946.16;5155208;27;20193;-57
2023/10/27 05:42:03;;;;;;;0.00;0.00;;;;;;;10.54;100.00;96939.88;5155062;27;20229;-57
2023/10/27 05:44:49;;;;;;;0.00;0.00;;;;;;;10.68;100.00;96943.78;5155075;27;20192;-57
2023/10/27 05:47:36;;;;;;;0.10;0.10;;;;;;;10.64;100.00;96948.56;5153537;27;20245;-57
2023/10/27 05:50:23;;;;;;;0.00;0.00;;;;;;;10.70;100.00;96947.94;5155008;27;20185;-57
2023/10/27 05:53:12;;;;;;;0.10;0.10;;;;;;;10.76;100.00;96949.97;5154756;27;20212;-57
2023/10/27 05:55:58;;;;;;;0.00;0.00;;;;;;;10.57;100.00;96947.50;5154704;27;20215;-57
2023/10/27 05:58:46;;;;;;;0.10;0.10;;;;;;;10.45;100.00;96949.56;5154821;27;20682;-57
2023/10/27 06:01:34;;;;;;;0.10;0.10;;;;;;;10.72;100.00;96951.28;5153531;27;20185;-58
2023/10/27 06:04:20;;;;;;;0.00;0.00;;;;;;;10.73;100.00;96955.59;5154646;27;20675;-58
2023/10/27 06:07:07;;;;;;;0.10;0.10;;;;;;;10.68;100.00;96959.66;5154871;27;20219;-58
2023/10/27 06:09:55;;;;;;;0.10;0.10;;;;;;;10.70;100.00;96960.34;5154887;27;20241;-57
2023/10/27 06:12:42;;;;;;;0.10;0.10;;;;;;;10.73;100.00;96970.63;5154382;27;20369;-58
2023/10/27 06:15:29;;;;;;;0.10;0.10;;;;;;;10.69;100.00;96969.25;5154730;27;20203;-58
2023/10/27 06:18:16;;;;;;;0.00;0.00;;;;;;;10.73;100.00;96970.63;5154765;27;20250;-58
2023/10/27 06:21:04;;;;;;;0.10;0.10;;;;;;;10.83;100.00;96969.56;5154523;27;20196;-58
2023/10/27 06:23:51;;;;;;;0.10;0.10;;;;;;;10.76;100.00;96971.16;5154286;27;20213;-58
2023/10/27 06:26:40;;;;;;;0.00;0.00;;;;;;;10.74;100.00;96969.66;5154524;27;20193;-58
2023/10/27 06:29:27;;;;;;;0.00;0.00;;;;;;;10.72;100.00;96971.63;5154549;27;20216;-58
2023/10/27 06:32:14;;;;;;;0.00;0.00;;;;;;;10.77;100.00;96977.28;5153185;27;20286;-58
2023/10/27 06:35:01;;;;;;;0.00;0.00;;;;;;;10.78;100.00;96973.63;5154466;27;20201;-58
2023/10/27 06:37:48;;;;;;;0.10;0.10;;;;;;;10.88;100.00;96977.84;5154334;27;20261;-58
2023/10/27 06:40:35;;;;;;;0.10;0.10;;;;;;;10.91;100.00;96973.25;5157890;27;20192;-58
2023/10/27 06:43:23;;;;;;;0.00;0.00;;;;;;;10.99;100.00;96983.91;5158912;27;20192;-58
2023/10/27 06:46:11;;;;;;;0.10;0.10;;;;;;;11.01;100.00;96976.66;5157296;27;20201;-58
2023/10/27 06:48:57;;;;;;;0.10;0.10;;;;;;;10.96;100.00;96982.41;5158580;27;20201;-58
2023/10/27 06:51:47;;;;;;;0.10;0.10;;;;;;;10.95;100.00;96979.91;5158600;27;20201;-58
2023/10/27 06:54:34;;;;;;;0.00;0.00;;;;;;;11.03;100.00;96979.97;5158387;27;20181;-58
2023/10/27 06:57:20;;;;;;;0.10;0.10;;;;;;;11.14;100.00;96980.53;5158578;27;20184;-58
2023/10/27 07:00:10;;;;;;;0.10;0.10;;;;;;;11.36;100.00;96979.19;5158364;27;20188;-58
2023/10/27 07:02:57;;;;;;;0.00;0.00;;;;;;;11.34;100.00;96981.16;5156956;27;20187;-58
2023/10/27 07:05:44;;;;;;;0.10;0.10;;;;;;;11.31;100.00;96973.53;5158153;27;20306;-58
2023/10/27 07:08:31;;;;;;;0.10;0.10;;;;;;;11.29;100.00;96969.34;5158217;27;20189;-58
2023/10/27 07:11:18;;;;;;;0.00;0.00;;;;;;;11.22;100.00;96965.69;5158163;27;20239;-58
2023/10/27 07:14:05;;;;;;;0.00;0.00;;;;;;;11.18;100.00;96958.03;5157712;27;20548;-58
2023/10/27 07:16:54;;;;;;;0.00;0.00;;;;;;;11.33;100.00;96960.13;5156901;27;20685;-58
2023/10/27 07:19:41;;;;;;;0.00;0.00;;;;;;;11.14;100.00;96954.03;5158087;27;20193;-58
2023/10/27 07:22:30;;;;;;;0.10;0.10;;;;;;;11.06;100.00;96955.81;5157636;27;20221;-58
2023/10/27 07:25:17;;;;;;;0.10;0.10;;;;;;;11.14;100.00;96951.41;5158007;27;20196;-58
2023/10/27 07:28:04;;;;;;;0.00;0.00;;;;;;;11.21;100.00;96954.25;5157839;27;20272;-58
2023/10/27 07:30:51;;;;;;;0.00;0.00;;;;;;;11.27;100.00;96947.50;5156380;27;20398;-58
2023/10/27 07:33:39;;;;;;;0.10;0.10;;;;;;;11.44;100.00;96951.91;5157448;27;20220;-58
2023/10/27 07:36:26;;;;;;;0.00;0.00;;;;;;;11.43;100.00;96960.84;5157677;27;20197;-58
2023/10/27 07:39:14;;;;;;;0.00;0.00;;;;;;;11.34;100.00;96956.47;5157618;27;20192;-58
2023/10/27 07:42:02;;;;;;;0.00;0.00;;;;;;;11.44;100.00;96952.72;5157515;27;20185;-58
2023/10/27 07:44:49;;;;;;;0.10;0.10;;;;;;;11.40;100.00;96954.03;5157332;27;20184;-58
2023/10/27 07:47:36;;;;;;;0.10;0.10;;;;;;;11.34;100.00;96952.00;5155601;27;20189;-58
2023/10/27 07:50:24;;;;;;;0.03;0.03;;;;;;;11.15;100.00;96947.75;5157168;27;20189;-58
2023/10/27 07:53:11;;;;;;;0.00;0.00;;;;;;;11.34;100.00;96949.34;5157231;27;20569;-58
2023/10/27 07:55:58;;;;;;;0.00;0.00;;;;;;;11.32;100.00;96954.00;5157069;27;20354;-58
2023/10/27 07:58:45;;;;;;;0.07;0.07;;;;;;;11.20;100.00;96957.06;5157241;27;20702;-57
2023/10/27 08:01:32;;;;;;;0.00;0.00;;;;;;;11.24;100.00;96961.88;5155469;27;20312;-57
2023/10/27 08:04:20;;;;;;;0.10;0.10;;;;;;;11.22;100.00;96966.53;5157064;27;20189;-57
2023/10/27 08:07:09;;;;;;;0.10;0.10;;;;;;;11.24;100.00;96972.50;5156986;27;20192;-57
2023/10/27 08:09:58;;;;;;;0.00;0.00;;;;;;;11.14;100.00;96971.75;5157040;27;20197;-57
2023/10/27 08:12:45;;;;;;;0.10;0.10;;;;;;;11.22;100.00;96965.69;5156804;27;20193;-57
2023/10/27 08:15:32;;;;;;;0.10;0.10;;;;;;;11.07;100.00;96968.88;5156881;27;20196;-57
2023/10/27 08:18:18;;;;;;;0.10;0.10;;;;;;;11.03;100.00;96972.84;5156790;27;20188;-57
2023/10/27 08:21:06;;;;;;;0.10;0.10;;;;;;;11.13;100.00;96962.97;5156633;27;20673;-57
2023/10/27 08:23:54;;;;;;;0.03;0.03;;;;;;;11.30;100.00;96968.41;5156263;27;20216;-57
2023/10/27 08:26:41;;;;;;;0.00;0.00;;;;;;;11.28;100.00;96973.81;5156691;27;20213;-57
2023/10/27 08:29:28;;;;;;;0.10;0.10;;;;;;;11.30;100.00;96976.34;5156715;27;20683;-57
2023/10/27 08:32:14;;;;;;;0.00;0.00;;;;;;;11.19;100.00;96982.72;5155154;27;20189;-57
2023/10/27 08:35:02;;;;;;;0.10;0.10;;;;;;;11.21;100.00;96987.88;5156218;27;20216;-57
2023/10/27 08:37:49;;;;;;;0.00;0.00;;;;;;;11.13;100.00;96986.00;5156382;27;20753;-58
2023/10/27 08:40:37;;;;;;;0.10;0.10;;;;;;;11.11;100.00;96980.88;5156514;27;20242;-58
2023/10/27 08:43:24;;;;;;;0.00;0.00;;;;;;;11.07;100.00;96998.03;5156584;27;20208;-58
2023/10/27 08:46:11;;;;;;;0.10;0.10;;;;;;;11.16;100.00;96988.31;5154948;27;20188;-57
2023/10/27 08:48:58;;;;;;;0.10;0.10;;;;;;;11.16;100.00;96990.97;5156205;27;20196;-58
2023/10/27 08:51:46;;;;;;;0.00;0.00;;;;;;;11.18;100.00;96994.28;5156448;27;20210;-58
2023/10/27 08:54:32;;;;;;;0.00;0.00;;;;;;;11.35;100.00;96996.06;5155760;27;20227;-58
2023/10/27 08:57:21;;;;;;;0.10;0.10;;;;;;;11.47;100.00;96991.31;5155852;27;20717;-58
2023/10/27 09:00:08;;;;;;;0.00;0.00;;;;;;;11.46;100.00;96992.31;5155936;27;20727;-58
2023/10/27 09:02:55;;;;;;;0.10;0.10;;;;;;;11.50;100.00;96995.50;5153757;27;20227;-58
2023/10/27 09:05:42;;;;;;;0.03;0.03;;;;;;;11.50;100.00;96993.69;5155740;27;20659;-58
2023/10/27 09:08:28;;;;;;;0.10;0.10;;;;;;;11.64;100.00;96995.75;5155742;27;20211;-58
2023/10/27 09:11:16;;;;;;;0.00;0.00;;;;;;;11.65;100.00;97000.03;5153482;27;20671;-58
2023/10/27 09:14:17;;;;;;;0.10;0.10;;;;;;;11.65;100.00;96994.75;5118240;27;20220;-58
2023/10/27 09:17:06;;;;;;;0.10;0.10;;;;;;;11.59;100.00;96999.88;5132252;27;20200;-58
2023/10/27 09:20:04;;;;;;;0.00;0.00;;;;;;;11.70;100.00;97005.72;5150633;27;20192;-58
2023/10/27 09:22:56;;;;;;;0.00;0.00;;;;;;;11.86;100.00;97007.63;5154350;27;20236;-57
2023/10/27 09:25:43;;;;;;;0.00;0.00;;;;;;;11.92;100.00;97009.66;5154295;27;20209;-57
2023/10/27 09:28:31;;;;;;;0.10;0.10;;;;;;;11.96;100.00;97002.19;5154309;27;20199;-57
2023/10/27 09:31:33;;;;;;;0.10;0.10;;;;;;;11.97;100.00;97002.06;5153084;27;20279;-58
2023/10/27 09:34:21;;;;;;;0.00;0.00;;;;;;;12.16;100.00;96998.31;5154078;27;20666;-58
2023/10/27 09:37:08;;;;;;;0.10;0.10;;;;;;;11.81;100.00;96995.84;5154446;27;20209;-58
2023/10/27 09:39:55;;;;;;;0.00;0.00;;;;;;;11.96;100.00;97000.38;5153837;27;20189;-58
2023/10/27 09:42:43;;;;;;;0.03;0.03;;;;;;;12.08;100.00;97000.13;5154529;27;20188;-58
2023/10/27 09:45:33;;;;;;;0.10;0.10;;;;;;;12.36;100.00;97001.53;5154111;27;20263;-58
2023/10/27 09:48:24;;;;;;;0.10;0.10;;;;;;;12.20;100.00;96996.16;5153087;27;20344;-58
2023/10/27 09:51:16;;;;;;;0.10;0.10;;;;;;;12.12;100.00;96999.63;5154256;27;20282;-58
2023/10/27 09:54:05;;;;;;;0.10;0.10;;;;;;;11.87;100.00;96996.06;5153987;27;20213;-58
2023/10/27 09:56:53;;;;;;;0.00;0.00;;;;;;;11.96;100.00;96997.72;5154049;27;20188;-58
2023/10/27 09:59:40;;;;;;;0.10;0.10;;;;;;;11.80;100.00;97002.97;5154223;27;20246;-58
2023/10/27 10:02:29;;;;;;;0.10;0.10;;;;;;;11.98;100.00;96994.94;5152254;27;20196;-58
2023/10/27 10:05:17;;;;;;;0.00;0.00;;;;;;;11.83;100.00;96999.16;5154182;27;20623;-58
2023/10/27 10:08:09;;;;;;;0.10;0.10;;;;;;;11.95;100.00;96996.06;5154996;27;20193;-57
2023/10/27 10:11:11;;;;;;;0.10;0.10;;;;;;;11.75;100.00;96999.94;5154765;27;20641;-57
2023/10/27 10:13:59;;;;;;;0.00;0.00;;;;;;;11.63;100.00;97001.19;5154211;27;20211;-58
2023/10/27 10:16:47;;;;;;;0.10;0.10;;;;;;;11.63;100.00;97009.16;5153263;27;20311;-57
2023/10/27 10:19:50;;;;;;;0.10;0.10;;;;;;;11.67;100.00;97008.66;5154500;27;20181;-58
2023/10/27 10:22:54;;;;;;;0.10;0.10;;;;;;;11.73;100.00;97020.47;5153562;27;20224;-58
2023/10/27 10:25:51;;;;;;;0.10;0.10;;;;;;;11.83;100.00;97010.59;5153263;27;20200;-58
2023/10/27 10:28:39;;;;;;;0.00;0.00;;;;;;;12.08;100.00;97013.38;5138713;27;20208;-58
2023/10/27 10:31:25;;;;;;;0.10;0.10;;;;;;;12.03;100.00;97014.66;5153192;27;20655;-57
2023/10/27 10:34:12;;;;;;;0.10;0.10;;;;;;;11.95;100.00;97019.94;5154336;27;20224;-57
2023/10/27 10:37:24;;;;;;;0.00;0.00;;;;;;;12.00;100.00;97019.47;5154499;27;20261;-57
2023/10/27 10:40:23;;;;;;;0.10;0.10;;;;;;;12.07;100.00;97015.19;5154400;27;20262;-58
2023/10/27 10:43:23;;;;;;;0.00;0.00;;;;;;;12.17;100.00;97026.50;5154370;27;20234;-58
2023/10/27 10:46:12;;;;;;;0.00;0.00;;;;;;;12.00;100.00;97012.34;5153097;27;20188;-58
2023/10/27 10:48:59;;;;;;;0.00;0.00;;;;;;;11.88;100.00;97013.63;5154348;27;20189;-58
2023/10/27 10:51:52;;;;;;;0.10;0.10;;;;;;;12.00;100.00;97024.78;5154273;27;20197;-58
2023/10/27 10:54:39;;;;;;;0.10;0.10;;;;;;;12.09;100.00;97017.69;5138457;27;20262;-58
2023/10/27 10:57:29;;;;;;;0.00;0.00;;;;;;;12.09;100.00;97017.69;5154225;27;20192;-58
2023/10/27 11:00:18;;;;;;;0.00;0.00;;;;;;;12.07;100.00;97025.81;5154245;27;20197;-58
2023/10/27 11:03:09;;;;;;;0.10;0.10;;;;;;;12.10;100.00;97019.34;5152698;27;20239;-58
2023/10/27 11:05:59;;;;;;;0.10;0.10;;;;;;;12.09;100.00;97017.69;5152858;27;20197;-58
2023/10/27 11:08:47;;;;;;;0.10;0.10;;;;;;;12.11;100.00;97018.34;5152614;27;20193;-58
2023/10/27 11:11:35;;;;;;;0.10;0.10;;;;;;;12.29;100.00;97017.25;5153009;27;20254;-58
2023/10/27 11:14:41;;;;;;;0.10;0.10;;;;;;;12.33;100.00;97009.78;5152852;27;20213;-58
2023/10/27 11:17:48;;;;;;;0.10;0.10;;;;;;;12.30;100.00;97010.13;5151697;27;20204;-58
2023/10/27 11:20:35;;;;;;;0.10;0.10;;;;;;;12.33;100.00;97004.47;5152664;27;20382;-58
2023/10/27 11:23:27;;;;;;;0.10;0.10;;;;;;;12.49;100.00;97006.34;5152327;27;20244;-58
2023/10/27 11:26:16;;;;;;;0.00;0.00;;;;;;;12.36;100.00;96998.03;5153614;27;20193;-58
2023/10/27 11:29:08;;;;;;;0.10;0.10;;;;;;;12.54;100.00;96998.72;5156356;27;20318;-58
2023/10/27 11:31:56;;;;;;;0.10;0.10;;;;;;;12.53;100.00;96989.09;5154959;27;20188;-58
2023/10/27 11:34:56;;;;;;;0.10;0.10;;;;;;;12.82;100.00;96978.00;5157503;27;20301;-58
2023/10/27 11:37:43;;;;;;;0.10;0.10;;;;;;;12.75;100.00;96975.19;5142043;27;20671;-58
2023/10/27 11:40:30;;;;;;;0.10;0.10;;;;;;;12.66;100.00;96970.03;5157827;27;20273;-58
2023/10/27 11:43:17;;;;;;;0.10;0.10;;;;;;;12.89;100.00;96966.53;5157757;27;20250;-58
2023/10/27 11:46:10;;;;;;;0.10;0.10;;;;;;;12.83;100.00;96966.38;5156114;27;20196;-58
2023/10/27 11:48:58;;;;;;;0.00;0.00;;;;;;;12.55;100.00;96977.31;5157517;27;20196;-58
2023/10/27 11:51:45;;;;;;;0.10;0.10;;;;;;;12.41;100.00;96977.94;5157479;27;20226;-58
2023/10/27 11:54:32;;;;;;;0.10;0.10;;;;;;;12.41;100.00;96977.13;5157277;27;20200;-58
2023/10/27 11:57:19;;;;;;;0.00;0.00;;;;;;;12.63;100.00;96965.84;5157431;27;20192;-58
2023/10/27 12:00:09;;;;;;;0.10;0.10;;;;;;;12.74;100.00;96968.22;5141478;27;20197;-58
2023/10/27 12:02:58;;;;;;;0.00;0.00;;;;;;;12.96;100.00;96972.03;5155700;27;20265;-58
2023/10/27 12:05:47;;;;;;;0.00;0.00;;;;;;;13.08;100.00;96975.16;5157163;27;20200;-58
2023/10/27 12:08:34;;;;;;;0.10;0.10;;;;;;;13.14;100.00;96962.03;5157134;27;20238;-57
2023/10/27 12:11:20;;;;;;;0.10;0.10;;;;;;;13.95;100.00;96963.66;5156912;27;20291;-57
2023/10/27 12:14:07;;;;;;;0.00;0.00;;;;;;;14.30;100.00;96958.81;5156985;27;20188;-57
2023/10/27 12:16:54;;;;;;;0.10;0.10;;;;;;;14.70;100.00;96947.09;5155584;27;20204;-57
2023/10/27 12:19:41;;;;;;;0.10;0.10;;;;;;;14.50;100.00;96933.41;5156808;27;20323;-57
2023/10/27 12:22:30;;;;;;;0.10;0.10;;;;;;;14.91;100.00;96933.09;5156719;27;20233;-57
2023/10/27 12:25:17;;;;;;;0.10;0.10;;;;;;;14.75;100.00;96925.22;5156743;27;20185;-57
2023/10/27 12:28:04;;;;;;;0.03;0.03;;;;;;;14.62;100.00;96925.00;5156512;27;20262;-57
2023/10/27 12:30:51;;;;;;;0.10;0.10;;;;;;;14.94;100.00;96926.56;5155348;27;20363;-57
2023/10/27 12:33:38;;;;;;;0.00;0.00;;;;;;;14.75;100.00;96925.22;5156880;27;20210;-57
2023/10/27 12:36:27;;;;;;;0.10;0.10;;;;;;;14.83;100.00;96918.00;5156174;27;20220;-57
2023/10/27 12:39:16;;;;;;;0.03;0.03;;;;;;;14.76;100.00;96919.72;5156494;27;20238;-57
2023/10/27 12:42:05;;;;;;;0.00;0.00;;;;;;;14.40;100.00;96931.97;5156352;27;20193;-57
2023/10/27 12:44:52;;;;;;;0.10;0.10;;;;;;;14.25;100.00;96932.72;5156346;27;20188;-57
2023/10/27 12:47:40;;;;;;;0.10;0.10;;;;;;;14.20;100.00;96942.25;5155050;27;20197;-57
2023/10/27 12:50:27;;;;;;;0.00;0.00;;;;;;;14.09;100.00;96932.81;5156366;27;20706;-57
2023/10/27 12:53:16;;;;;;;0.10;0.10;;;;;;;14.17;100.00;96947.91;5156052;27;20196;-57
2023/10/27 12:56:07;;;;;;;0.00;0.00;;;;;;;15.08;100.00;96947.09;5155988;27;20338;-57
2023/10/27 12:58:54;;;;;;;0.00;0.00;;;;;;;15.45;100.00;96938.22;5156035;27;20242;-57
2023/10/27 13:01:41;;;;;;;0.00;0.00;;;;;;;15.49;100.00;96938.69;5154652;27;20648;-56